sensor_id;sensor_type;location;lat;lon;timestamp;P1;durP1;ratioP1;P2;durP2;ratioP2
10078;SDS011;5078;42.544;22.966;2023-12-20T00:00:18;77.37;;;29.10;;
10078;SDS011;5078;42.544;22.966;2023-12-20T00:02:44;63.73;;;27.63;;
10078;SDS011;5078;42.544;22.966;2023-12-20T00:05:12;90.00;;;28.50;;
10078;SDS011;5078;42.544;22.966;2023-12-20T00:07:38;115.40;;;31.60;;
10078;SDS011;5078;42.544;22.966;2023-12-20T00:10:05;82.50;;;24.73;;
10078;SDS011;5078;42.544;22.966;2023-12-20T00:12:32;69.80;;;26.37;;
10078;SDS011;5078;42.544;22.966;2023-12-20T00:15:00;77.50;;;29.07;;
10078;SDS011;5078;42.544;22.966;2023-12-20T00:17:26;77.03;;;29.93;;
10078;SDS011;5078;42.544;22.966;2023-12-20T00:19:54;75.47;;;29.63;;
10078;SDS011;5078;42.544;22.966;2023-12-20T00:22:20;63.27;;;29.30;;
10078;SDS011;5078;42.544;22.966;2023-12-20T00:24:50;73.33;;;32.63;;
10078;SDS011;5078;42.544;22.966;2023-12-20T00:27:16;115.03;;;35.77;;
10078;SDS011;5078;42.544;22.966;2023-12-20T00:29:43;111.30;;;35.77;;
10078;SDS011;5078;42.544;22.966;2023-12-20T00:32:14;103.37;;;34.57;;
10078;SDS011;5078;42.544;22.966;2023-12-20T00:34:40;85.03;;;33.77;;
10078;SDS011;5078;42.544;22.966;2023-12-20T00:37:07;72.80;;;31.37;;
10078;SDS011;5078;42.544;22.966;2023-12-20T00:39:33;88.90;;;31.10;;
10078;SDS011;5078;42.544;22.966;2023-12-20T00:42:00;69.10;;;30.63;;
10078;SDS011;5078;42.544;22.966;2023-12-20T00:44:26;66.33;;;30.30;;
10078;SDS011;5078;42.544;22.966;2023-12-20T00:46:52;63.87;;;27.43;;
10078;SDS011;5078;42.544;22.966;2023-12-20T00:49:20;94.50;;;31.70;;
10078;SDS011;5078;42.544;22.966;2023-12-20T00:51:47;71.87;;;25.87;;
10078;SDS011;5078;42.544;22.966;2023-12-20T00:54:15;44.63;;;21.20;;
10078;SDS011;5078;42.544;22.966;2023-12-20T00:56:41;74.47;;;24.30;;
10078;SDS011;5078;42.544;22.966;2023-12-20T00:59:08;49.70;;;19.53;;
10078;SDS011;5078;42.544;22.966;2023-12-20T01:01:34;80.80;;;21.13;;
10078;SDS011;5078;42.544;22.966;2023-12-20T01:04:01;42.07;;;16.53;;
10078;SDS011;5078;42.544;22.966;2023-12-20T01:06:29;23.07;;;10.83;;
10078;SDS011;5078;42.544;22.966;2023-12-20T01:08:56;33.73;;;14.00;;
10078;SDS011;5078;42.544;22.966;2023-12-20T01:11:22;38.43;;;13.33;;
10078;SDS011;5078;42.544;22.966;2023-12-20T01:13:49;46.10;;;14.30;;
10078;SDS011;5078;42.544;22.966;2023-12-20T01:16:15;82.37;;;15.87;;
10078;SDS011;5078;42.544;22.966;2023-12-20T01:18:42;45.30;;;16.33;;
10078;SDS011;5078;42.544;22.966;2023-12-20T01:21:08;34.30;;;14.57;;
10078;SDS011;5078;42.544;22.966;2023-12-20T01:23:36;34.93;;;15.27;;
10078;SDS011;5078;42.544;22.966;2023-12-20T01:26:02;40.10;;;14.73;;
10078;SDS011;5078;42.544;22.966;2023-12-20T01:28:29;43.93;;;15.83;;
10078;SDS011;5078;42.544;22.966;2023-12-20T01:30:56;59.63;;;14.93;;
10078;SDS011;5078;42.544;22.966;2023-12-20T01:33:23;68.13;;;15.57;;
10078;SDS011;5078;42.544;22.966;2023-12-20T01:35:49;38.10;;;13.23;;
10078;SDS011;5078;42.544;22.966;2023-12-20T01:38:16;48.10;;;16.30;;
10078;SDS011;5078;42.544;22.966;2023-12-20T01:40:45;52.00;;;15.73;;
10078;SDS011;5078;42.544;22.966;2023-12-20T01:43:11;30.63;;;14.60;;
10078;SDS011;5078;42.544;22.966;2023-12-20T01:45:38;44.47;;;13.97;;
10078;SDS011;5078;42.544;22.966;2023-12-20T01:48:04;39.90;;;14.30;;
10078;SDS011;5078;42.544;22.966;2023-12-20T01:50:31;78.93;;;17.33;;
10078;SDS011;5078;42.544;22.966;2023-12-20T01:52:58;40.70;;;15.70;;
10078;SDS011;5078;42.544;22.966;2023-12-20T01:55:27;32.00;;;15.17;;
10078;SDS011;5078;42.544;22.966;2023-12-20T01:57:55;80.87;;;18.97;;
10078;SDS011;5078;42.544;22.966;2023-12-20T02:00:22;74.67;;;18.03;;
10078;SDS011;5078;42.544;22.966;2023-12-20T02:02:51;35.87;;;16.50;;
10078;SDS011;5078;42.544;22.966;2023-12-20T02:05:19;50.13;;;19.53;;
10078;SDS011;5078;42.544;22.966;2023-12-20T02:07:45;41.77;;;18.20;;
10078;SDS011;5078;42.544;22.966;2023-12-20T02:10:12;52.27;;;19.53;;
10078;SDS011;5078;42.544;22.966;2023-12-20T02:12:38;35.60;;;15.33;;
10078;SDS011;5078;42.544;22.966;2023-12-20T02:15:06;45.63;;;15.60;;
10078;SDS011;5078;42.544;22.966;2023-12-20T02:17:33;30.47;;;15.23;;
10078;SDS011;5078;42.544;22.966;2023-12-20T02:20:00;29.23;;;14.30;;
10078;SDS011;5078;42.544;22.966;2023-12-20T02:22:27;41.73;;;15.87;;
10078;SDS011;5078;42.544;22.966;2023-12-20T02:24:54;31.47;;;15.90;;
10078;SDS011;5078;42.544;22.966;2023-12-20T02:27:20;36.90;;;16.43;;
10078;SDS011;5078;42.544;22.966;2023-12-20T02:29:48;52.60;;;17.93;;
10078;SDS011;5078;42.544;22.966;2023-12-20T02:32:14;70.83;;;19.87;;
10078;SDS011;5078;42.544;22.966;2023-12-20T02:34:41;66.23;;;16.67;;
10078;SDS011;5078;42.544;22.966;2023-12-20T02:37:07;35.37;;;14.93;;
10078;SDS011;5078;42.544;22.966;2023-12-20T02:39:35;74.07;;;16.53;;
10078;SDS011;5078;42.544;22.966;2023-12-20T02:42:02;34.77;;;17.30;;
10078;SDS011;5078;42.544;22.966;2023-12-20T02:44:28;32.10;;;15.70;;
10078;SDS011;5078;42.544;22.966;2023-12-20T02:46:55;33.87;;;15.50;;
10078;SDS011;5078;42.544;22.966;2023-12-20T02:49:21;35.20;;;17.43;;
10078;SDS011;5078;42.544;22.966;2023-12-20T02:51:47;35.47;;;15.87;;
10078;SDS011;5078;42.544;22.966;2023-12-20T02:54:14;42.23;;;19.20;;
10078;SDS011;5078;42.544;22.966;2023-12-20T02:56:42;39.90;;;16.93;;
10078;SDS011;5078;42.544;22.966;2023-12-20T02:59:08;54.70;;;19.47;;
10078;SDS011;5078;42.544;22.966;2023-12-20T03:01:35;42.60;;;18.83;;
10078;SDS011;5078;42.544;22.966;2023-12-20T03:04:01;50.03;;;19.73;;
10078;SDS011;5078;42.544;22.966;2023-12-20T03:06:27;87.17;;;24.23;;
10078;SDS011;5078;42.544;22.966;2023-12-20T03:08:54;58.23;;;19.87;;
10078;SDS011;5078;42.544;22.966;2023-12-20T03:11:20;53.87;;;20.27;;
10078;SDS011;5078;42.544;22.966;2023-12-20T03:13:48;51.37;;;18.70;;
10078;SDS011;5078;42.544;22.966;2023-12-20T03:16:14;46.83;;;18.50;;
10078;SDS011;5078;42.544;22.966;2023-12-20T03:18:41;43.77;;;17.13;;
10078;SDS011;5078;42.544;22.966;2023-12-20T03:21:08;54.13;;;19.03;;
10078;SDS011;5078;42.544;22.966;2023-12-20T03:23:35;49.90;;;18.77;;
10078;SDS011;5078;42.544;22.966;2023-12-20T03:26:01;174.57;;;23.40;;
10078;SDS011;5078;42.544;22.966;2023-12-20T03:28:29;112.23;;;21.93;;
10078;SDS011;5078;42.544;22.966;2023-12-20T03:30:57;140.40;;;24.60;;
10078;SDS011;5078;42.544;22.966;2023-12-20T03:33:23;46.63;;;20.53;;
10078;SDS011;5078;42.544;22.966;2023-12-20T03:35:50;58.33;;;20.80;;
10078;SDS011;5078;42.544;22.966;2023-12-20T03:38:16;59.90;;;21.43;;
10078;SDS011;5078;42.544;22.966;2023-12-20T03:40:43;74.07;;;22.93;;
10078;SDS011;5078;42.544;22.966;2023-12-20T03:43:09;64.47;;;22.17;;
10078;SDS011;5078;42.544;22.966;2023-12-20T03:45:36;116.70;;;22.23;;
10078;SDS011;5078;42.544;22.966;2023-12-20T03:48:04;105.20;;;24.70;;
10078;SDS011;5078;42.544;22.966;2023-12-20T03:50:30;191.23;;;26.40;;
10078;SDS011;5078;42.544;22.966;2023-12-20T03:52:57;133.53;;;25.57;;
10078;SDS011;5078;42.544;22.966;2023-12-20T03:55:23;156.30;;;27.70;;
10078;SDS011;5078;42.544;22.966;2023-12-20T03:57:50;67.77;;;23.87;;
10078;SDS011;5078;42.544;22.966;2023-12-20T04:00:16;97.43;;;25.20;;
10078;SDS011;5078;42.544;22.966;2023-12-20T04:02:43;185.67;;;27.63;;
10078;SDS011;5078;42.544;22.966;2023-12-20T04:05:11;148.57;;;23.97;;
10078;SDS011;5078;42.544;22.966;2023-12-20T04:07:37;78.27;;;24.37;;
10078;SDS011;5078;42.544;22.966;2023-12-20T04:10:04;71.17;;;21.80;;
10078;SDS011;5078;42.544;22.966;2023-12-20T04:12:30;118.90;;;27.37;;
10078;SDS011;5078;42.544;22.966;2023-12-20T04:14:56;162.90;;;32.27;;
10078;SDS011;5078;42.544;22.966;2023-12-20T04:17:23;84.03;;;20.57;;
10078;SDS011;5078;42.544;22.966;2023-12-20T04:19:49;134.93;;;23.43;;
10078;SDS011;5078;42.544;22.966;2023-12-20T04:22:18;101.77;;;21.67;;
10078;SDS011;5078;42.544;22.966;2023-12-20T04:24:44;174.47;;;21.37;;
10078;SDS011;5078;42.544;22.966;2023-12-20T04:27:11;106.10;;;21.20;;
10078;SDS011;5078;42.544;22.966;2023-12-20T04:29:37;113.73;;;24.80;;
10078;SDS011;5078;42.544;22.966;2023-12-20T04:32:04;76.03;;;15.93;;
10078;SDS011;5078;42.544;22.966;2023-12-20T04:34:31;133.37;;;16.03;;
10078;SDS011;5078;42.544;22.966;2023-12-20T04:36:57;88.60;;;15.13;;
10078;SDS011;5078;42.544;22.966;2023-12-20T04:39:25;158.53;;;15.07;;
10078;SDS011;5078;42.544;22.966;2023-12-20T04:41:51;145.73;;;16.07;;
10078;SDS011;5078;42.544;22.966;2023-12-20T04:44:18;132.93;;;16.70;;
10078;SDS011;5078;42.544;22.966;2023-12-20T04:46:44;77.23;;;15.87;;
10078;SDS011;5078;42.544;22.966;2023-12-20T04:49:10;143.93;;;20.90;;
10078;SDS011;5078;42.544;22.966;2023-12-20T04:51:37;174.33;;;22.07;;
10078;SDS011;5078;42.544;22.966;2023-12-20T04:54:04;150.87;;;24.47;;
10078;SDS011;5078;42.544;22.966;2023-12-20T04:56:31;224.83;;;29.30;;
10078;SDS011;5078;42.544;22.966;2023-12-20T04:58:58;134.47;;;23.87;;
10078;SDS011;5078;42.544;22.966;2023-12-20T05:01:24;79.77;;;22.43;;
10078;SDS011;5078;42.544;22.966;2023-12-20T05:03:51;85.70;;;19.07;;
10078;SDS011;5078;42.544;22.966;2023-12-20T05:06:17;90.57;;;20.13;;
10078;SDS011;5078;42.544;22.966;2023-12-20T05:08:44;64.17;;;19.90;;
10078;SDS011;5078;42.544;22.966;2023-12-20T05:11:10;72.20;;;21.40;;
10078;SDS011;5078;42.544;22.966;2023-12-20T05:13:39;93.17;;;19.93;;
10078;SDS011;5078;42.544;22.966;2023-12-20T05:16:06;121.43;;;21.53;;
10078;SDS011;5078;42.544;22.966;2023-12-20T05:18:32;72.87;;;21.10;;
10078;SDS011;5078;42.544;22.966;2023-12-20T05:20:59;62.10;;;21.57;;
10078;SDS011;5078;42.544;22.966;2023-12-20T05:23:25;78.00;;;22.73;;
10078;SDS011;5078;42.544;22.966;2023-12-20T05:25:51;59.40;;;23.70;;
10078;SDS011;5078;42.544;22.966;2023-12-20T05:28:18;114.10;;;25.37;;
10078;SDS011;5078;42.544;22.966;2023-12-20T05:30:46;97.80;;;23.17;;
10078;SDS011;5078;42.544;22.966;2023-12-20T05:33:12;52.93;;;18.97;;
10078;SDS011;5078;42.544;22.966;2023-12-20T05:35:39;75.63;;;17.50;;
10078;SDS011;5078;42.544;22.966;2023-12-20T05:38:05;57.93;;;17.60;;
10078;SDS011;5078;42.544;22.966;2023-12-20T05:40:32;66.30;;;19.10;;
10078;SDS011;5078;42.544;22.966;2023-12-20T05:42:58;99.53;;;18.87;;
10078;SDS011;5078;42.544;22.966;2023-12-20T05:45:25;162.30;;;42.83;;
10078;SDS011;5078;42.544;22.966;2023-12-20T05:47:52;78.50;;;22.03;;
10078;SDS011;5078;42.544;22.966;2023-12-20T05:50:19;75.70;;;19.87;;
10078;SDS011;5078;42.544;22.966;2023-12-20T05:52:46;106.07;;;21.53;;
10078;SDS011;5078;42.544;22.966;2023-12-20T05:55:13;88.27;;;20.73;;
10078;SDS011;5078;42.544;22.966;2023-12-20T05:57:39;63.40;;;18.83;;
10078;SDS011;5078;42.544;22.966;2023-12-20T06:00:07;60.50;;;17.43;;
10078;SDS011;5078;42.544;22.966;2023-12-20T06:02:34;98.57;;;21.63;;
10078;SDS011;5078;42.544;22.966;2023-12-20T06:05:03;45.90;;;17.80;;
10078;SDS011;5078;42.544;22.966;2023-12-20T06:07:30;73.10;;;20.60;;
10078;SDS011;5078;42.544;22.966;2023-12-20T06:09:56;39.93;;;19.57;;
10078;SDS011;5078;42.544;22.966;2023-12-20T06:12:22;67.50;;;23.17;;
10078;SDS011;5078;42.544;22.966;2023-12-20T06:14:49;102.97;;;22.57;;
10078;SDS011;5078;42.544;22.966;2023-12-20T06:17:15;26.53;;;13.03;;
10078;SDS011;5078;42.544;22.966;2023-12-20T06:19:42;32.70;;;13.67;;
10078;SDS011;5078;42.544;22.966;2023-12-20T06:22:11;38.23;;;15.53;;
10078;SDS011;5078;42.544;22.966;2023-12-20T06:24:37;54.27;;;16.03;;
10078;SDS011;5078;42.544;22.966;2023-12-20T06:27:04;38.43;;;15.60;;
10078;SDS011;5078;42.544;22.966;2023-12-20T06:29:30;62.70;;;18.23;;
10078;SDS011;5078;42.544;22.966;2023-12-20T06:31:57;34.37;;;14.80;;
10078;SDS011;5078;42.544;22.966;2023-12-20T06:34:23;34.03;;;15.10;;
10078;SDS011;5078;42.544;22.966;2023-12-20T06:36:50;70.23;;;16.90;;
10078;SDS011;5078;42.544;22.966;2023-12-20T06:39:17;57.47;;;13.17;;
10078;SDS011;5078;42.544;22.966;2023-12-20T06:41:44;64.10;;;14.03;;
10078;SDS011;5078;42.544;22.966;2023-12-20T06:44:10;36.47;;;12.40;;
10078;SDS011;5078;42.544;22.966;2023-12-20T06:46:37;39.63;;;12.50;;
10078;SDS011;5078;42.544;22.966;2023-12-20T06:49:03;54.73;;;10.63;;
10078;SDS011;5078;42.544;22.966;2023-12-20T06:51:30;41.73;;;12.67;;
10078;SDS011;5078;42.544;22.966;2023-12-20T06:53:56;67.67;;;11.57;;
10078;SDS011;5078;42.544;22.966;2023-12-20T06:56:24;29.40;;;9.87;;
10078;SDS011;5078;42.544;22.966;2023-12-20T06:58:51;44.73;;;11.50;;
10078;SDS011;5078;42.544;22.966;2023-12-20T07:01:18;86.57;;;33.87;;
10078;SDS011;5078;42.544;22.966;2023-12-20T07:03:44;273.90;;;146.30;;
10078;SDS011;5078;42.544;22.966;2023-12-20T07:06:10;106.60;;;49.90;;
10078;SDS011;5078;42.544;22.966;2023-12-20T07:08:37;37.73;;;15.93;;
10078;SDS011;5078;42.544;22.966;2023-12-20T07:11:03;104.77;;;24.50;;
10078;SDS011;5078;42.544;22.966;2023-12-20T07:13:31;94.73;;;21.83;;
10078;SDS011;5078;42.544;22.966;2023-12-20T07:15:58;43.47;;;24.13;;
10078;SDS011;5078;42.544;22.966;2023-12-20T07:18:25;240.60;;;111.97;;
10078;SDS011;5078;42.544;22.966;2023-12-20T07:20:51;227.50;;;105.93;;
10078;SDS011;5078;42.544;22.966;2023-12-20T07:23:19;25.90;;;12.80;;
10078;SDS011;5078;42.544;22.966;2023-12-20T07:25:46;34.57;;;15.00;;
10078;SDS011;5078;42.544;22.966;2023-12-20T07:28:12;45.47;;;15.40;;
10078;SDS011;5078;42.544;22.966;2023-12-20T07:30:40;72.97;;;19.23;;
10078;SDS011;5078;42.544;22.966;2023-12-20T07:33:07;51.00;;;14.00;;
10078;SDS011;5078;42.544;22.966;2023-12-20T07:35:34;30.90;;;11.10;;
10078;SDS011;5078;42.544;22.966;2023-12-20T07:38:01;19.07;;;7.53;;
10078;SDS011;5078;42.544;22.966;2023-12-20T07:40:27;22.73;;;10.53;;
10078;SDS011;5078;42.544;22.966;2023-12-20T07:42:54;16.07;;;9.17;;
10078;SDS011;5078;42.544;22.966;2023-12-20T07:45:20;40.37;;;11.40;;
10078;SDS011;5078;42.544;22.966;2023-12-20T07:47:50;21.03;;;11.43;;
10078;SDS011;5078;42.544;22.966;2023-12-20T07:50:16;26.10;;;13.03;;
10078;SDS011;5078;42.544;22.966;2023-12-20T07:52:42;32.07;;;14.77;;
10078;SDS011;5078;42.544;22.966;2023-12-20T07:55:09;54.30;;;15.30;;
10078;SDS011;5078;42.544;22.966;2023-12-20T07:57:35;27.90;;;15.63;;
10078;SDS011;5078;42.544;22.966;2023-12-20T08:00:03;31.73;;;14.70;;
10078;SDS011;5078;42.544;22.966;2023-12-20T08:02:30;26.97;;;14.57;;
10078;SDS011;5078;42.544;22.966;2023-12-20T08:04:58;40.10;;;16.43;;
10078;SDS011;5078;42.544;22.966;2023-12-20T08:07:24;46.10;;;12.67;;
10078;SDS011;5078;42.544;22.966;2023-12-20T08:09:51;35.43;;;12.00;;
10078;SDS011;5078;42.544;22.966;2023-12-20T08:12:19;25.83;;;12.83;;
10078;SDS011;5078;42.544;22.966;2023-12-20T08:14:46;27.20;;;14.90;;
10078;SDS011;5078;42.544;22.966;2023-12-20T08:17:12;42.87;;;18.33;;
10078;SDS011;5078;42.544;22.966;2023-12-20T08:19:41;24.43;;;13.33;;
10078;SDS011;5078;42.544;22.966;2023-12-20T08:22:09;39.33;;;19.47;;
10078;SDS011;5078;42.544;22.966;2023-12-20T08:24:35;51.83;;;19.60;;
10078;SDS011;5078;42.544;22.966;2023-12-20T08:27:02;26.07;;;14.13;;
10078;SDS011;5078;42.544;22.966;2023-12-20T08:29:28;31.73;;;14.23;;
10078;SDS011;5078;42.544;22.966;2023-12-20T08:31:55;33.67;;;16.13;;
10078;SDS011;5078;42.544;22.966;2023-12-20T08:34:21;26.53;;;13.67;;
10078;SDS011;5078;42.544;22.966;2023-12-20T08:36:48;28.07;;;11.90;;
10078;SDS011;5078;42.544;22.966;2023-12-20T08:39:16;37.30;;;12.03;;
10078;SDS011;5078;42.544;22.966;2023-12-20T08:41:42;31.40;;;12.83;;
10078;SDS011;5078;42.544;22.966;2023-12-20T08:44:09;22.27;;;11.43;;
10078;SDS011;5078;42.544;22.966;2023-12-20T08:46:36;35.67;;;13.13;;
10078;SDS011;5078;42.544;22.966;2023-12-20T08:49:02;140.47;;;76.07;;
10078;SDS011;5078;42.544;22.966;2023-12-20T08:51:28;251.27;;;129.23;;
10078;SDS011;5078;42.544;22.966;2023-12-20T08:53:55;34.93;;;19.63;;
10078;SDS011;5078;42.544;22.966;2023-12-20T08:56:23;45.50;;;14.67;;
10078;SDS011;5078;42.544;22.966;2023-12-20T08:58:49;25.33;;;12.47;;
10078;SDS011;5078;42.544;22.966;2023-12-20T09:01:16;21.90;;;13.57;;
10078;SDS011;5078;42.544;22.966;2023-12-20T09:03:42;28.87;;;15.53;;
10078;SDS011;5078;42.544;22.966;2023-12-20T09:06:09;24.60;;;12.43;;
10078;SDS011;5078;42.544;22.966;2023-12-20T09:08:35;51.90;;;13.47;;
10078;SDS011;5078;42.544;22.966;2023-12-20T09:11:02;33.13;;;14.20;;
10078;SDS011;5078;42.544;22.966;2023-12-20T09:13:30;54.60;;;20.90;;
10078;SDS011;5078;42.544;22.966;2023-12-20T09:15:57;38.03;;;18.87;;
10078;SDS011;5078;42.544;22.966;2023-12-20T09:18:23;36.83;;;19.13;;
10078;SDS011;5078;42.544;22.966;2023-12-20T09:20:50;40.60;;;21.20;;
10078;SDS011;5078;42.544;22.966;2023-12-20T09:23:16;28.63;;;18.80;;
10078;SDS011;5078;42.544;22.966;2023-12-20T09:25:43;28.37;;;17.73;;
10078;SDS011;5078;42.544;22.966;2023-12-20T09:28:10;30.40;;;18.63;;
10078;SDS011;5078;42.544;22.966;2023-12-20T09:30:38;23.13;;;13.43;;
10078;SDS011;5078;42.544;22.966;2023-12-20T09:33:05;26.43;;;19.73;;
10078;SDS011;5078;42.544;22.966;2023-12-20T09:35:35;23.67;;;17.77;;
10078;SDS011;5078;42.544;22.966;2023-12-20T09:38:01;23.80;;;17.20;;
10078;SDS011;5078;42.544;22.966;2023-12-20T09:40:28;18.40;;;13.87;;
10078;SDS011;5078;42.544;22.966;2023-12-20T09:42:56;17.80;;;12.67;;
10078;SDS011;5078;42.544;22.966;2023-12-20T09:45:23;38.17;;;34.27;;
10078;SDS011;5078;42.544;22.966;2023-12-20T09:47:51;19.03;;;14.83;;
10078;SDS011;5078;42.544;22.966;2023-12-20T09:50:21;18.30;;;14.50;;
10078;SDS011;5078;42.544;22.966;2023-12-20T09:52:48;20.53;;;16.57;;
10078;SDS011;5078;42.544;22.966;2023-12-20T09:55:15;20.63;;;16.50;;
10078;SDS011;5078;42.544;22.966;2023-12-20T09:57:43;20.17;;;14.37;;
10078;SDS011;5078;42.544;22.966;2023-12-20T10:00:10;21.73;;;17.03;;
10078;SDS011;5078;42.544;22.966;2023-12-20T10:02:36;18.50;;;13.93;;
10078;SDS011;5078;42.544;22.966;2023-12-20T10:05:06;15.10;;;12.47;;
10078;SDS011;5078;42.544;22.966;2023-12-20T10:07:34;14.67;;;12.20;;
10078;SDS011;5078;42.544;22.966;2023-12-20T10:10:01;15.90;;;13.07;;
10078;SDS011;5078;42.544;22.966;2023-12-20T10:12:28;18.63;;;13.13;;
10078;SDS011;5078;42.544;22.966;2023-12-20T10:14:55;20.77;;;15.70;;
10078;SDS011;5078;42.544;22.966;2023-12-20T10:17:21;20.77;;;16.23;;
10078;SDS011;5078;42.544;22.966;2023-12-20T10:19:48;25.43;;;16.87;;
10078;SDS011;5078;42.544;22.966;2023-12-20T10:22:16;24.77;;;15.60;;
10078;SDS011;5078;42.544;22.966;2023-12-20T10:24:42;20.50;;;14.17;;
10078;SDS011;5078;42.544;22.966;2023-12-20T10:27:09;19.10;;;15.07;;
10078;SDS011;5078;42.544;22.966;2023-12-20T10:29:35;27.37;;;20.90;;
10078;SDS011;5078;42.544;22.966;2023-12-20T10:34:43;17.30;;;12.93;;
10078;SDS011;5078;42.544;22.966;2023-12-20T10:37:10;19.23;;;14.37;;
10078;SDS011;5078;42.544;22.966;2023-12-20T10:39:37;39.80;;;28.80;;
10078;SDS011;5078;42.544;22.966;2023-12-20T10:42:05;69.80;;;47.63;;
10078;SDS011;5078;42.544;22.966;2023-12-20T10:44:31;31.77;;;23.80;;
10078;SDS011;5078;42.544;22.966;2023-12-20T10:46:58;23.83;;;17.80;;
10078;SDS011;5078;42.544;22.966;2023-12-20T10:49:25;22.80;;;15.27;;
10078;SDS011;5078;42.544;22.966;2023-12-20T10:51:52;19.80;;;14.97;;
10078;SDS011;5078;42.544;22.966;2023-12-20T10:54:22;26.57;;;18.10;;
10078;SDS011;5078;42.544;22.966;2023-12-20T10:56:50;32.70;;;20.23;;
10078;SDS011;5078;42.544;22.966;2023-12-20T10:59:17;32.87;;;20.70;;
10078;SDS011;5078;42.544;22.966;2023-12-20T11:01:47;36.33;;;25.13;;
10078;SDS011;5078;42.544;22.966;2023-12-20T11:04:15;38.40;;;23.50;;
10078;SDS011;5078;42.544;22.966;2023-12-20T11:06:46;37.80;;;22.90;;
10078;SDS011;5078;42.544;22.966;2023-12-20T11:09:14;42.57;;;27.47;;
10078;SDS011;5078;42.544;22.966;2023-12-20T11:11:47;44.90;;;28.07;;
10078;SDS011;5078;42.544;22.966;2023-12-20T11:14:20;48.47;;;28.90;;
10078;SDS011;5078;42.544;22.966;2023-12-20T11:16:48;39.00;;;27.00;;
10078;SDS011;5078;42.544;22.966;2023-12-20T11:19:16;29.60;;;20.77;;
10078;SDS011;5078;42.544;22.966;2023-12-20T11:21:43;20.60;;;14.63;;
10078;SDS011;5078;42.544;22.966;2023-12-20T11:24:09;27.30;;;19.65;;
10078;SDS011;5078;42.544;22.966;2023-12-20T11:26:36;29.95;;;22.58;;
10078;SDS011;5078;42.544;22.966;2023-12-20T11:31:48;22.30;;;15.77;;
10078;SDS011;5078;42.544;22.966;2023-12-20T11:34:15;27.73;;;19.83;;
10078;SDS011;5078;42.544;22.966;2023-12-20T11:36:43;30.02;;;22.60;;
10078;SDS011;5078;42.544;22.966;2023-12-20T11:39:10;28.98;;;21.70;;
10078;SDS011;5078;42.544;22.966;2023-12-20T11:41:36;29.45;;;22.52;;
10078;SDS011;5078;42.544;22.966;2023-12-20T11:44:04;30.90;;;23.50;;
10078;SDS011;5078;42.544;22.966;2023-12-20T11:46:30;30.75;;;24.17;;
10078;SDS011;5078;42.544;22.966;2023-12-20T11:48:59;30.83;;;23.17;;
10078;SDS011;5078;42.544;22.966;2023-12-20T11:51:27;26.42;;;20.58;;
10078;SDS011;5078;42.544;22.966;2023-12-20T11:53:53;27.08;;;21.67;;
10078;SDS011;5078;42.544;22.966;2023-12-20T11:56:20;23.25;;;18.48;;
10078;SDS011;5078;42.544;22.966;2023-12-20T11:58:46;30.92;;;23.30;;
10078;SDS011;5078;42.544;22.966;2023-12-20T12:01:13;27.35;;;20.08;;
10078;SDS011;5078;42.544;22.966;2023-12-20T12:03:40;27.25;;;21.40;;
10078;SDS011;5078;42.544;22.966;2023-12-20T12:06:09;33.30;;;24.98;;
10078;SDS011;5078;42.544;22.966;2023-12-20T12:08:35;30.08;;;22.80;;
10078;SDS011;5078;42.544;22.966;2023-12-20T12:11:05;28.98;;;21.00;;
10078;SDS011;5078;42.544;22.966;2023-12-20T12:13:31;27.67;;;20.58;;
10078;SDS011;5078;42.544;22.966;2023-12-20T12:15:58;31.58;;;23.83;;
10078;SDS011;5078;42.544;22.966;2023-12-20T12:18:25;31.30;;;21.95;;
10078;SDS011;5078;42.544;22.966;2023-12-20T12:20:59;33.40;;;22.35;;
10078;SDS011;5078;42.544;22.966;2023-12-20T12:23:27;23.05;;;17.50;;
10078;SDS011;5078;42.544;22.966;2023-12-20T12:25:53;30.63;;;21.58;;
10078;SDS011;5078;42.544;22.966;2023-12-20T12:28:20;35.92;;;20.95;;
10078;SDS011;5078;42.544;22.966;2023-12-20T12:30:55;33.58;;;23.58;;
10078;SDS011;5078;42.544;22.966;2023-12-20T12:33:22;92.72;;;30.42;;
10078;SDS011;5078;42.544;22.966;2023-12-20T12:35:48;74.30;;;34.08;;
10078;SDS011;5078;42.544;22.966;2023-12-20T12:38:15;63.65;;;32.42;;
10078;SDS011;5078;42.544;22.966;2023-12-20T12:40:42;48.35;;;21.65;;
10078;SDS011;5078;42.544;22.966;2023-12-20T12:43:09;65.32;;;20.33;;
10078;SDS011;5078;42.544;22.966;2023-12-20T12:45:35;83.95;;;27.05;;
10078;SDS011;5078;42.544;22.966;2023-12-20T12:48:02;52.90;;;23.77;;
10078;SDS011;5078;42.544;22.966;2023-12-20T12:50:28;43.30;;;17.13;;
10078;SDS011;5078;42.544;22.966;2023-12-20T12:52:55;34.57;;;21.60;;
10078;SDS011;5078;42.544;22.966;2023-12-20T12:55:21;39.70;;;23.35;;
10078;SDS011;5078;42.544;22.966;2023-12-20T12:57:49;51.15;;;26.88;;
10078;SDS011;5078;42.544;22.966;2023-12-20T13:00:16;50.03;;;27.48;;
10078;SDS011;5078;42.544;22.966;2023-12-20T13:02:42;47.42;;;25.90;;
10078;SDS011;5078;42.544;22.966;2023-12-20T13:05:09;42.38;;;26.80;;
10078;SDS011;5078;42.544;22.966;2023-12-20T13:07:35;37.03;;;24.70;;
10078;SDS011;5078;42.544;22.966;2023-12-20T13:10:02;47.92;;;24.60;;
10078;SDS011;5078;42.544;22.966;2023-12-20T13:12:29;57.67;;;37.13;;
10078;SDS011;5078;42.544;22.966;2023-12-20T13:14:57;42.57;;;30.50;;
10078;SDS011;5078;42.544;22.966;2023-12-20T13:17:23;39.45;;;26.73;;
10078;SDS011;5078;42.544;22.966;2023-12-20T13:19:50;47.13;;;29.80;;
10078;SDS011;5078;42.544;22.966;2023-12-20T13:22:16;44.53;;;29.55;;
10078;SDS011;5078;42.544;22.966;2023-12-20T13:24:43;45.55;;;29.27;;
10078;SDS011;5078;42.544;22.966;2023-12-20T13:27:10;49.28;;;32.90;;
10078;SDS011;5078;42.544;22.966;2023-12-20T13:29:36;48.33;;;35.10;;
10078;SDS011;5078;42.544;22.966;2023-12-20T13:32:05;42.75;;;31.33;;
10078;SDS011;5078;42.544;22.966;2023-12-20T13:34:31;46.33;;;34.30;;
10078;SDS011;5078;42.544;22.966;2023-12-20T13:36:58;43.55;;;32.95;;
10078;SDS011;5078;42.544;22.966;2023-12-20T13:39:24;43.37;;;30.80;;
10078;SDS011;5078;42.544;22.966;2023-12-20T13:41:50;41.40;;;29.95;;
10078;SDS011;5078;42.544;22.966;2023-12-20T13:44:17;35.73;;;29.43;;
10078;SDS011;5078;42.544;22.966;2023-12-20T13:46:43;37.50;;;30.97;;
10078;SDS011;5078;42.544;22.966;2023-12-20T13:49:12;34.77;;;27.80;;
10078;SDS011;5078;42.544;22.966;2023-12-20T13:51:38;33.73;;;26.10;;
10078;SDS011;5078;42.544;22.966;2023-12-20T13:54:05;41.70;;;31.20;;
10078;SDS011;5078;42.544;22.966;2023-12-20T13:56:31;35.28;;;27.25;;
10078;SDS011;5078;42.544;22.966;2023-12-20T13:58:59;42.08;;;31.10;;
10078;SDS011;5078;42.544;22.966;2023-12-20T14:01:25;46.45;;;33.88;;
10078;SDS011;5078;42.544;22.966;2023-12-20T14:03:52;34.67;;;26.80;;
10078;SDS011;5078;42.544;22.966;2023-12-20T14:06:20;35.58;;;25.73;;
10078;SDS011;5078;42.544;22.966;2023-12-20T14:08:46;38.20;;;28.48;;
10078;SDS011;5078;42.544;22.966;2023-12-20T14:11:13;34.45;;;27.65;;
10078;SDS011;5078;42.544;22.966;2023-12-20T14:13:40;30.40;;;22.03;;
10078;SDS011;5078;42.544;22.966;2023-12-20T14:16:07;33.93;;;24.80;;
10078;SDS011;5078;42.544;22.966;2023-12-20T14:18:35;29.92;;;23.08;;
10078;SDS011;5078;42.544;22.966;2023-12-20T14:21:02;34.27;;;25.97;;
10078;SDS011;5078;42.544;22.966;2023-12-20T14:23:31;34.43;;;26.37;;